Observation data for Andrews on 10/13/2019      Previous  Date       Current Mesonet Observations  Soil Data  Daily Summary Page  Observations in Plain Language
KANS 130500Z 18004KT 10/M02 A3003 RMK A01 T01031024  RH  042%=      5-min Rain = 0
KANS 130505Z 18006KT 10/M02 A3003 RMK A01 T01011022  RH  043%=      5-min Rain = 0
KANS 130510Z 19005KT 10/M02 A3003 RMK A01 T00981022  RH  044%=      5-min Rain = 0
KANS 130515Z 19004KT 10/M02 A3002 RMK A01 T00981021  RH  043%=      5-min Rain = 0
KANS 130520Z 19005KT 10/M02 A3002 RMK A01 T00981021  RH  044%=      5-min Rain = 0
KANS 130525Z 18004KT 10/M02 A3002 RMK A01 T00981022  RH  044%=      5-min Rain = 0
KANS 130530Z 18004KT 10/M02 A3002 RMK A01 T00971022  RH  044%=      5-min Rain = 0
KANS 130535Z 19005KT 10/M02 A3002 RMK A01 T00961021  RH  045%=      5-min Rain = 0
KANS 130540Z 18002KT 09/M02 A3002 RMK A01 T00941021  RH  045%=      5-min Rain = 0
KANS 130545Z 18004KT 09/M02 A3002 RMK A01 T00941022  RH  045%=      5-min Rain = 0
KANS 130550Z 19005KT 09/M02 A3002 RMK A01 T00931020  RH  046%=      5-min Rain = 0
KANS 130555Z 19005KT 09/M02 A3001 RMK A01 T00921020  RH  046%=      5-min Rain = 0
KANS 130600Z 19005KT 09/M02 A3001 RMK A01 T00921020  RH  046%=      5-min Rain = 0
KANS 130605Z 19006KT 09/M02 A3001 RMK A01 T00921019  RH  046%=      5-min Rain = 0
KANS 130610Z 20006KT 09/M02 A3001 RMK A01 T00921020  RH  046%=      5-min Rain = 0
KANS 130615Z 19006KT 09/M02 A3001 RMK A01 T00941022  RH  045%=      5-min Rain = 0
KANS 130620Z 19005KT 10/M02 A30 RMK A01 T00961023  RH  044%=      5-min Rain = 0
KANS 130625Z 19005KT 10/M02 A30 RMK A01 T00981024  RH  043%=      5-min Rain = 0
KANS 130630Z 20005KT 10/M02 A30 RMK A01 T00991024  RH  043%=      5-min Rain = 0
KANS 130635Z 20005KT 10/M03 A30 RMK A01 T01001026  RH  042%=      5-min Rain = 0
KANS 130640Z 19006KT 10/M03 A30 RMK A01 T01011027  RH  041%=      5-min Rain = 0
KANS 130645Z 19006KT 10/M03 A30 RMK A01 T01031029  RH  040%=      5-min Rain = 0
KANS 130650Z 19006KT 10/M03 A30 RMK A01 T01041030  RH  040%=      5-min Rain = 0
KANS 130655Z 20006KT 10/M03 A30 RMK A01 T01021029  RH  040%=      5-min Rain = 0
KANS 130700Z 20006KT 10/M03 A30 RMK A01 T01011029  RH  040%=      5-min Rain = 0
KANS 130705Z 20006KT 10/M03 A30 RMK A01 T01001029  RH  041%=      5-min Rain = 0
KANS 130710Z 20006KT 10/M03 A30 RMK A01 T01001030  RH  041%=      5-min Rain = 0
KANS 130715Z 20006KT 10/M03 A30 RMK A01 T01001031  RH  040%=      5-min Rain = 0
KANS 130720Z 20007KT 10/M03 A30 RMK A01 T01021032  RH  039%=      5-min Rain = 0
KANS 130725Z 21006KT 10/M03 A30 RMK A01 T01041032  RH  039%=      5-min Rain = 0
KANS 130730Z 21005KT 10/M03 A30 RMK A01 T01041031  RH  039%=      5-min Rain = 0
KANS 130735Z 21005KT 10/M03 A30 RMK A01 T01031029  RH  040%=      5-min Rain = 0
KANS 130740Z 21005KT 10/M03 A30 RMK A01 T01011028  RH  041%=      5-min Rain = 0
KANS 130745Z 22005KT 10/M03 A30 RMK A01 T00981027  RH  042%=      5-min Rain = 0
KANS 130750Z 22005KT 10/M03 A30 RMK A01 T00951026  RH  043%=      5-min Rain = 0
KANS 130755Z 22005KT 09/M02 A30 RMK A01 T00921022  RH  045%=      5-min Rain = 0
KANS 130800Z 22005KT 09/M02 A30 RMK A01 T00891021  RH  046%=      5-min Rain = 0
KANS 130805Z 22005KT 09/M02 A30 RMK A01 T00881021  RH  047%=      5-min Rain = 0
KANS 130810Z 22006KT 09/M02 A30 RMK A01 T00871019  RH  048%=      5-min Rain = 0
KANS 130815Z 22006KT 09/M02 A30 RMK A01 T00861018  RH  048%=      5-min Rain = 0
KANS 130820Z 22005KT 09/M02 A30 RMK A01 T00861016  RH  049%=      5-min Rain = 0
KANS 130825Z 23005KT 09/M02 A30 RMK A01 T00861016  RH  049%=      5-min Rain = 0
KANS 130830Z 23005KT 09/M02 A30 RMK A01 T00851016  RH  050%=      5-min Rain = 0
KANS 130835Z 23006KT 08/M02 A2999 RMK A01 T00841016  RH  050%=      5-min Rain = 0
KANS 130840Z 23006KT 08/M02 A2999 RMK A01 T00841018  RH  049%=      5-min Rain = 0
KANS 130845Z 23006KT 09/M02 A2999 RMK A01 T00851019  RH  049%=      5-min Rain = 0
KANS 130850Z 22005KT 09/M02 A2999 RMK A01 T00861019  RH  048%=      5-min Rain = 0
KANS 130855Z 23005KT 09/M02 A2999 RMK A01 T00861019  RH  048%=      5-min Rain = 0
KANS 130900Z 23006KT 09/M02 A2999 RMK A01 T00861019  RH  048%=      5-min Rain = 0
KANS 130905Z 23005KT 09/M02 A2999 RMK A01 T00851018  RH  049%=      5-min Rain = 0
KANS 130910Z 23006KT 09/M02 A2999 RMK A01 T00861017  RH  049%=      5-min Rain = 0
KANS 130915Z 22005KT 09/M02 A2998 RMK A01 T00861016  RH  049%=      5-min Rain = 0
KANS 130920Z 23005KT 09/M02 A2998 RMK A01 T00851015  RH  050%=      5-min Rain = 0
KANS 130925Z 22006KT 08/M02 A2998 RMK A01 T00841015  RH  050%=      5-min Rain = 0
KANS 130930Z 23005KT 08/M02 A2998 RMK A01 T00841016  RH  050%=      5-min Rain = 0
KANS 130935Z 23005KT 08/M01 A2998 RMK A01 T00841014  RH  051%=      5-min Rain = 0
KANS 130940Z 23006KT 08/M01 A2998 RMK A01 T00831014  RH  051%=      5-min Rain = 0
KANS 130945Z 23006KT 08/M01 A2998 RMK A01 T00821013  RH  052%=      5-min Rain = 0
KANS 130950Z 23007KT 08/M01 A2998 RMK A01 T00831014  RH  051%=      5-min Rain = 0
KANS 130955Z 23006KT 09/M02 A2998 RMK A01 T00851016  RH  049%=      5-min Rain = 0
KANS 131000Z 23006KT 09/M02 A2998 RMK A01 T00861017  RH  049%=      5-min Rain = 0
KANS 131005Z 23006KT 09/M02 A2998 RMK A01 T00861016  RH  049%=      5-min Rain = 0
KANS 131010Z 23005KT 09/M02 A2998 RMK A01 T00851015  RH  050%=      5-min Rain = 0
KANS 131015Z 24005KT 08/M02 A2998 RMK A01 T00831017  RH  050%=      5-min Rain = 0
KANS 131020Z 24005KT 08/M02 A2998 RMK A01 T00811017  RH  051%=      5-min Rain = 0
KANS 131025Z 23005KT 08/M02 A2998 RMK A01 T00781016  RH  052%=      5-min Rain = 0
KANS 131030Z 24005KT 08/M02 A2998 RMK A01 T00771016  RH  052%=      5-min Rain = 0
KANS 131035Z 25005KT 08/M02 A2999 RMK A01 T00771016  RH  052%=      5-min Rain = 0
KANS 131040Z 24004KT 08/M02 A2999 RMK A01 T00761015  RH  053%=      5-min Rain = 0
KANS 131045Z 24004KT 08/M02 A2999 RMK A01 T00761015  RH  053%=      5-min Rain = 0
KANS 131050Z 25005KT 08/M02 A2999 RMK A01 T00751015  RH  053%=      5-min Rain = 0
KANS 131055Z 25005KT 08/M01 A2999 RMK A01 T00751014  RH  054%=      5-min Rain = 0
KANS 131100Z 24005KT 08/M01 A2999 RMK A01 T00751014  RH  054%=      5-min Rain = 0
KANS 131105Z 24004KT 08/M01 A2999 RMK A01 T00751014  RH  054%=      5-min Rain = 0
KANS 131110Z 25005KT 08/M01 A2999 RMK A01 T00761014  RH  054%=      5-min Rain = 0
KANS 131115Z 24006KT 08/M01 A2999 RMK A01 T00761013  RH  054%=      5-min Rain = 0
KANS 131120Z 23006KT 07/M01 A2999 RMK A01 T00741011  RH  055%=      5-min Rain = 0
KANS 131125Z 24006KT 08/M01 A2999 RMK A01 T00751011  RH  055%=      5-min Rain = 0
KANS 131130Z 23005KT 08/M01 A2999 RMK A01 T00781009  RH  055%=      5-min Rain = 0
KANS 131135Z 23006KT 08/M01 A2999 RMK A01 T00811008  RH  054%=      5-min Rain = 0
KANS 131140Z 24005KT 08/M01 A2999 RMK A01 T00831008  RH  053%=      5-min Rain = 0
KANS 131145Z 23005KT 08/M01 A2999 RMK A01 T00831008  RH  053%=      5-min Rain = 0
KANS 131150Z 24006KT 08/M01 A2999 RMK A01 T00841008  RH  053%=      5-min Rain = 0
KANS 131155Z 23006KT 08/M01 A2999 RMK A01 T00831007  RH  053%=      5-min Rain = 0
KANS 131200Z 23006KT 08/M01 A2999 RMK A01 T00821007  RH  054%=      5-min Rain = 0
KANS 131205Z 23005KT 08/M01 A2999 RMK A01 T00801006  RH  055%=      5-min Rain = 0
KANS 131210Z 24005KT 08/M00 A2999 RMK A01 T00781004  RH  057%=      5-min Rain = 0
KANS 131215Z 24006KT 08/M00 A2999 RMK A01 T00761004  RH  057%=      5-min Rain = 0
KANS 131220Z 24006KT 08/M01 A2999 RMK A01 T00761006  RH  056%=      5-min Rain = 0
KANS 131225Z 24006KT 08/M01 A2999 RMK A01 T00771008  RH  056%=      5-min Rain = 0
KANS 131230Z 24006KT 08/M01 A2999 RMK A01 T00761007  RH  056%=      5-min Rain = 0
KANS 131235Z 25005KT 08/M01 A2999 RMK A01 T00751007  RH  057%=      5-min Rain = 0
KANS 131240Z 26005KT 07/M01 A2999 RMK A01 T00731006  RH  058%=      5-min Rain = 0
KANS 131245Z 25006KT 07/M01 A2999 RMK A01 T00721008  RH  057%=      5-min Rain = 0
KANS 131250Z 25005KT 07/M01 A2999 RMK A01 T00731009  RH  057%=      5-min Rain = 0
KANS 131255Z 26004KT 07/M01 A30 RMK A01 T00731008  RH  057%=      5-min Rain = 0
KANS 131300Z 26005KT 07/M01 A30 RMK A01 T00731007  RH  057%=      5-min Rain = 0
KANS 131305Z 26006KT 07/M01 A30 RMK A01 T00741005  RH  058%=      5-min Rain = 0
KANS 131310Z 25006KT 08/M00 A30 RMK A01 T00781003  RH  057%=      5-min Rain = 0
KANS 131315Z 24006KT 08/M00 A30 RMK A01 T00801001  RH  057%=      5-min Rain = 0
KANS 131320Z 24005KT 08/00 A30 RMK A01 T00840001  RH  057%=      5-min Rain = 0
KANS 131325Z 24005KT 09/00 A30 RMK A01 T00910002  RH  054%=      5-min Rain = 0
KANS 131330Z 25005KT 10/00 A30 RMK A01 T00970002  RH  052%=      5-min Rain = 0
KANS 131335Z 25005KT 10/00 A30 RMK A01 T01040003  RH  050%=      5-min Rain = 0
KANS 131340Z 25006KT 11/00 A30 RMK A01 T01110002  RH  047%=      5-min Rain = 0
KANS 131345Z 24007KT 12/00 A3001 RMK A01 T01150002  RH  046%=      5-min Rain = 0
KANS 131350Z 25006KT 12/01 A3001 RMK A01 T01190006  RH  046%=      5-min Rain = 0
KANS 131355Z 26007KT 13/01 A3001 RMK A01 T01250007  RH  045%=      5-min Rain = 0
KANS 131400Z 25007G12KT 13/01 A3001 RMK A01 T01320009  RH  044%=      5-min Rain = 0
KANS 131405Z 25007KT 14/01 A3001 RMK A01 T01380012  RH  043%=      5-min Rain = 0
KANS 131410Z 25007KT 15/01 A3001 RMK A01 T01450014  RH  041%=      5-min Rain = 0
KANS 131415Z 24007KT 15/02 A3001 RMK A01 T01510015  RH  040%=      5-min Rain = 0
KANS 131420Z 24006KT 16/02 A3002 RMK A01 T01560016  RH  039%=      5-min Rain = 0
KANS 131425Z 24007KT 16/02 A3002 RMK A01 T01590018  RH  039%=      5-min Rain = 0
KANS 131430Z 24006KT 16/02 A3003 RMK A01 T01620020  RH  039%=      5-min Rain = 0
KANS 131435Z 25005KT 17/02 A3003 RMK A01 T01650020  RH  038%=      5-min Rain = 0
KANS 131440Z 26005KT 17/02 A3003 RMK A01 T01690020  RH  037%=      5-min Rain = 0
KANS 131445Z 25006KT 17/02 A3003 RMK A01 T01740019  RH  036%=      5-min Rain = 0
KANS 131450Z 25006KT 18/02 A3003 RMK A01 T01770018  RH  035%=      5-min Rain = 0
KANS 131455Z 26006KT 18/02 A3004 RMK A01 T01780018  RH  035%=      5-min Rain = 0
KANS 131500Z 27005KT 18/02 A3004 RMK A01 T01810019  RH  034%=      5-min Rain = 0
KANS 131505Z 28004KT 19/02 A3004 RMK A01 T01850021  RH  034%=      5-min Rain = 0
KANS 131510Z 24003KT 19/02 A3004 RMK A01 T01900022  RH  033%=      5-min Rain = 0
KANS 131515Z 25003KT 19/02 A3004 RMK A01 T01930023  RH  033%=      5-min Rain = 0
KANS 131520Z 27004KT 20/02 A3004 RMK A01 T01960024  RH  032%=      5-min Rain = 0
KANS 131525Z 27004KT 20/03 A3004 RMK A01 T01980025  RH  032%=      5-min Rain = 0
KANS 131530Z 28005KT 20/02 A3004 RMK A01 T02010024  RH  031%=      5-min Rain = 0
KANS 131535Z 29004KT 20/03 A3004 RMK A01 T02030025  RH  031%=      5-min Rain = 0
KANS 131540Z 25005KT 21/03 A3004 RMK A01 T02050026  RH  031%=      5-min Rain = 0
KANS 131545Z 27005KT 21/03 A3004 RMK A01 T02080026  RH  030%=      5-min Rain = 0
KANS 131550Z 26005KT 21/03 A3004 RMK A01 T02100028  RH  030%=      5-min Rain = 0
KANS 131555Z 25006KT 21/03 A3004 RMK A01 T02130028  RH  030%=      5-min Rain = 0
KANS 131600Z 26007KT 22/03 A3004 RMK A01 T02150028  RH  030%=      5-min Rain = 0
KANS 131605Z 26007KT 22/03 A3004 RMK A01 T02190030  RH  029%=      5-min Rain = 0
KANS 131610Z 27006KT 22/03 A3004 RMK A01 T02230030  RH  028%=      5-min Rain = 0
KANS 131615Z 26007KT 22/03 A3004 RMK A01 T02230029  RH  028%=      5-min Rain = 0
KANS 131620Z 26007KT 22/03 A3004 RMK A01 T02240030  RH  028%=      5-min Rain = 0
KANS 131625Z 27006KT 23/03 A3004 RMK A01 T02300031  RH  028%=      5-min Rain = 0
KANS 131630Z 26006KT 23/03 A3004 RMK A01 T02330032  RH  027%=      5-min Rain = 0
KANS 131635Z 27007KT 24/03 A3004 RMK A01 T02350031  RH  027%=      5-min Rain = 0
KANS 131640Z 26006KT 24/03 A3004 RMK A01 T02400032  RH  026%=      5-min Rain = 0
KANS 131645Z 25005KT 24/03 A3004 RMK A01 T02380030  RH  026%=      5-min Rain = 0
KANS 131650Z 28005KT 24/03 A3004 RMK A01 T02430034  RH  026%=      5-min Rain = 0
KANS 131655Z 28006KT 25/03 A3004 RMK A01 T02450032  RH  025%=      5-min Rain = 0
KANS 131700Z 27005G10KT 25/04 A3003 RMK A01 T02460036  RH  026%=      5-min Rain = 0
KANS 131705Z 26006KT 25/03 A3004 RMK A01 T02490034  RH  025%=      5-min Rain = 0
KANS 131710Z 27005KT 25/03 A3003 RMK A01 T02500034  RH  025%=      5-min Rain = 0
KANS 131715Z 27007KT 25/04 A3003 RMK A01 T02530035  RH  025%=      5-min Rain = 0
KANS 131720Z 28005KT 26/04 A3003 RMK A01 T02550035  RH  024%=      5-min Rain = 0
KANS 131725Z 29004KT 26/04 A3003 RMK A01 T02600035  RH  024%=      5-min Rain = 0
KANS 131730Z 28005KT 26/04 A3003 RMK A01 T02620035  RH  023%=      5-min Rain = 0
KANS 131735Z 28005KT 26/03 A3003 RMK A01 T02640034  RH  023%=      5-min Rain = 0
KANS 131740Z 26005KT 27/03 A3003 RMK A01 T02650034  RH  023%=      5-min Rain = 0
KANS 131745Z 29005KT 27/03 A3003 RMK A01 T02660033  RH  023%=      5-min Rain = 0
KANS 131750Z 26004KT 27/03 A3003 RMK A01 T02650029  RH  022%=      5-min Rain = 0
KANS 131755Z 30005KT 27/03 A3003 RMK A01 T02680033  RH  022%=      5-min Rain = 0
KANS 131800Z 29005KT 27/03 A3002 RMK A01 T02680030  RH  022%=      5-min Rain = 0
KANS 131805Z 27004KT 27/03 A3002 RMK A01 T02690031  RH  022%=      5-min Rain = 0
KANS 131810Z 30003KT 27/03 A3002 RMK A01 T02720033  RH  022%=      5-min Rain = 0
KANS 131815Z 28002G8KT 28/03 A3002 RMK A01 T02760030  RH  021%=      5-min Rain = 0
KANS 131820Z 30007KT 28/03 A3001 RMK A01 T02780029  RH  020%=      5-min Rain = 0
KANS 131825Z 31006KT 28/03 A3001 RMK A01 T02780027  RH  020%=      5-min Rain = 0
KANS 131830Z 32004KT 28/02 A3001 RMK A01 T02790022  RH  019%=      5-min Rain = 0
KANS 131835Z 31001KT 28/02 A3001 RMK A01 T02800018  RH  019%=      5-min Rain = 0
KANS 131840Z 33002KT 28/02 A30 RMK A01 T02810022  RH  019%=      5-min Rain = 0
KANS 131845Z 27004KT 28/02 A30 RMK A01 T02820022  RH  019%=      5-min Rain = 0
KANS 131850Z 24002G7KT 28/02 A30 RMK A01 T02840020  RH  018%=      5-min Rain = 0
KANS 131855Z 30003KT 29/02 A30 RMK A01 T02870019  RH  018%=      5-min Rain = 0
KANS 131900Z 26003KT 29/02 A30 RMK A01 T02860018  RH  018%=      5-min Rain = 0
KANS 131905Z 31005KT 29/02 A2999 RMK A01 T02870022  RH  018%=      5-min Rain = 0
KANS 131910Z 33003KT 29/02 A2999 RMK A01 T02870016  RH  018%=      5-min Rain = 0
KANS 131915Z 27006KT 29/02 A2999 RMK A01 T02880018  RH  018%=      5-min Rain = 0
KANS 131920Z 26004KT 29/01 A2999 RMK A01 T02870014  RH  017%=      5-min Rain = 0
KANS 131925Z 31003KT 29/01 A2998 RMK A01 T02870014  RH  017%=      5-min Rain = 0
KANS 131930Z 30007KT 29/01 A2998 RMK A01 T02880014  RH  017%=      5-min Rain = 0
KANS 131935Z 28005KT 29/01 A2998 RMK A01 T02900013  RH  017%=      5-min Rain = 0
KANS 131940Z 28004KT 29/02 A2998 RMK A01 T02920015  RH  017%=      5-min Rain = 0
KANS 131945Z 28005KT 29/01 A2998 RMK A01 T02930013  RH  017%=      5-min Rain = 0
KANS 131950Z 26003KT 29/01 A2998 RMK A01 T02940012  RH  016%=      5-min Rain = 0
KANS 131955Z 21002KT 29/01 A2997 RMK A01 T02940010  RH  016%=      5-min Rain = 0
KANS 132000Z 34002KT 29/01 A2997 RMK A01 T02930008  RH  016%=      5-min Rain = 0
KANS 132005Z 27004KT 30/00 A2997 RMK A01 T02950001  RH  015%=      5-min Rain = 0
KANS 132010Z 32002KT 29/00 A2997 RMK A01 T02940000  RH  015%=      5-min Rain = 0
KANS 132015Z 26002KT 29/M01 A2997 RMK A01 T02941005  RH  015%=      5-min Rain = 0
KANS 132020Z 27004KT 30/00 A2996 RMK A01 T02970001  RH  015%=      5-min Rain = 0
KANS 132025Z 26006KT 30/M01 A2996 RMK A01 T02981005  RH  014%=      5-min Rain = 0
KANS 132030Z 22006KT 30/M01 A2996 RMK A01 T02991013  RH  013%=      5-min Rain = 0
KANS 132035Z 19003G8KT 30/M02 A2996 RMK A01 T03001015  RH  013%=      5-min Rain = 0
KANS 132040Z 23005G11KT 30/M01 A2996 RMK A01 T03021010  RH  013%=      5-min Rain = 0
KANS 132045Z 20003G11KT 30/M02 A2996 RMK A01 T02971021  RH  013%=      5-min Rain = 0
KANS 132050Z 26007KT 30/M02 A2995 RMK A01 T02991015  RH  013%=      5-min Rain = 0
KANS 132055Z 26005G10KT 30/M01 A2996 RMK A01 T03031009  RH  013%=      5-min Rain = 0
KANS 132100Z 25003KT 30/M01 A2995 RMK A01 T03031012  RH  013%=      5-min Rain = 0
KANS 132105Z 24005KT 30/M01 A2995 RMK A01 T03041009  RH  013%=      5-min Rain = 0
KANS 132110Z 23004KT 30/M01 A2995 RMK A01 T03031012  RH  013%=      5-min Rain = 0
KANS 132115Z 17004KT 30/M01 A2995 RMK A01 T03021012  RH  013%=      5-min Rain = 0
KANS 132120Z 24002KT 30/M02 A2995 RMK A01 T03011015  RH  013%=      5-min Rain = 0
KANS 132125Z 04001KT 30/M02 A2995 RMK A01 T02991015  RH  013%=      5-min Rain = 0
KANS 132130Z 30004KT 30/M01 A2995 RMK A01 T02991014  RH  013%=      5-min Rain = 0
KANS 132135Z 28006KT 30/M01 A2995 RMK A01 T03001012  RH  013%=      5-min Rain = 0
KANS 132140Z 26006KT 30/M01 A2995 RMK A01 T03001012  RH  013%=      5-min Rain = 0
KANS 132145Z 25005KT 30/M01 A2995 RMK A01 T03011012  RH  013%=      5-min Rain = 0
KANS 132150Z 29004G9KT 30/M02 A2995 RMK A01 T03011015  RH  013%=      5-min Rain = 0
KANS 132155Z 27005KT 30/M01 A2995 RMK A01 T03031013  RH  013%=      5-min Rain = 0
KANS 132200Z 24007G12KT 30/M01 A2995 RMK A01 T03031013  RH  013%=      5-min Rain = 0
KANS 132205Z 24006KT 30/M01 A2995 RMK A01 T03011011  RH  013%=      5-min Rain = 0
KANS 132210Z 24004KT 30/M01 A2995 RMK A01 T02981014  RH  013%=      5-min Rain = 0
KANS 132215Z 25005KT 30/M01 A2995 RMK A01 T02981012  RH  014%=      5-min Rain = 0
KANS 132220Z 27005KT 30/M01 A2995 RMK A01 T02951012  RH  014%=      5-min Rain = 0
KANS 132225Z 26005KT 30/M01 A2995 RMK A01 T02951012  RH  014%=      5-min Rain = 0
KANS 132230Z 26006KT 30/M01 A2995 RMK A01 T02951012  RH  014%=      5-min Rain = 0
KANS 132235Z 23004KT 30/M00 A2995 RMK A01 T02951004  RH  015%=      5-min Rain = 0
KANS 132240Z 26005KT 29/M01 A2995 RMK A01 T02921006  RH  015%=      5-min Rain = 0
KANS 132245Z 25004KT 29/00 A2995 RMK A01 T02900000  RH  015%=      5-min Rain = 0
KANS 132250Z 24006KT 29/M01 A2995 RMK A01 T02911009  RH  014%=      5-min Rain = 0
KANS 132255Z 24007KT 29/M01 A2995 RMK A01 T02911012  RH  014%=      5-min Rain = 0
KANS 132300Z 24006KT 29/M01 A2995 RMK A01 T02891013  RH  014%=      5-min Rain = 0
KANS 132305Z 24005KT 28/M01 A2996 RMK A01 T02821005  RH  016%=      5-min Rain = 0
KANS 132310Z 23005KT 28/00 A2996 RMK A01 T02750003  RH  017%=      5-min Rain = 0
KANS 132315Z 23004KT 27/01 A2996 RMK A01 T02710010  RH  019%=      5-min Rain = 0
KANS 132320Z 22004KT 27/02 A2996 RMK A01 T02700016  RH  019%=      5-min Rain = 0
KANS 132325Z 23004KT 27/02 A2996 RMK A01 T02700022  RH  020%=      5-min Rain = 0
KANS 132330Z 24004KT 27/02 A2996 RMK A01 T02680022  RH  021%=      5-min Rain = 0
KANS 132335Z 24004KT 27/02 A2996 RMK A01 T02650019  RH  020%=      5-min Rain = 0
KANS 132340Z 25005KT 26/02 A2996 RMK A01 T02600022  RH  022%=      5-min Rain = 0
KANS 132345Z 24005KT 25/03 A2996 RMK A01 T02530025  RH  023%=      5-min Rain = 0
KANS 132350Z 24006KT 25/03 A2996 RMK A01 T02470029  RH  025%=      5-min Rain = 0
KANS 132355Z 24006KT 24/03 A2997 RMK A01 T02410029  RH  025%=      5-min Rain = 0
KANS 140000Z 24006KT 24/03 A2997 RMK A01 T02360028  RH  026%=      5-min Rain = 0
KANS 140005Z 25005KT 23/03 A2997 RMK A01 T02330028  RH  026%=      5-min Rain = 0
KANS 140010Z 25004KT 23/03 A2997 RMK A01 T02310028  RH  027%=      5-min Rain = 0
KANS 140015Z 26004KT 23/03 A2997 RMK A01 T02300025  RH  026%=      5-min Rain = 0
KANS 140020Z 26004KT 23/02 A2997 RMK A01 T02300024  RH  026%=      5-min Rain = 0
KANS 140025Z 24003KT 23/03 A2997 RMK A01 T02260033  RH  029%=      5-min Rain = 0
KANS 140030Z 20004KT 22/04 A2997 RMK A01 T02200039  RH  031%=      5-min Rain = 0
KANS 140035Z 21004KT 22/03 A2997 RMK A01 T02190034  RH  030%=      5-min Rain = 0
KANS 140040Z 22005KT 22/04 A2997 RMK A01 T02190039  RH  031%=      5-min Rain = 0
KANS 140045Z 23005KT 22/04 A2997 RMK A01 T02190036  RH  030%=      5-min Rain = 0
KANS 140050Z 24004KT 22/04 A2997 RMK A01 T02190036  RH  030%=      5-min Rain = 0
KANS 140055Z 23005KT 22/04 A2997 RMK A01 T02170042  RH  032%=      5-min Rain = 0
KANS 140100Z 23004KT 22/04 A2998 RMK A01 T02150042  RH  033%=      5-min Rain = 0
KANS 140105Z 22004KT 21/04 A2998 RMK A01 T02130043  RH  033%=      5-min Rain = 0
KANS 140110Z 23004KT 21/04 A2998 RMK A01 T02120042  RH  033%=      5-min Rain = 0
KANS 140115Z 23004KT 21/04 A2998 RMK A01 T02100043  RH  034%=      5-min Rain = 0
KANS 140120Z 22005KT 21/04 A2998 RMK A01 T02100044  RH  034%=      5-min Rain = 0
KANS 140125Z 23005KT 21/04 A2998 RMK A01 T02100042  RH  034%=      5-min Rain = 0
KANS 140130Z 23005KT 21/04 A2998 RMK A01 T02110040  RH  033%=      5-min Rain = 0
KANS 140135Z 24006KT 21/03 A2998 RMK A01 T02110034  RH  032%=      5-min Rain = 0
KANS 140140Z 24006KT 21/03 A2999 RMK A01 T02120030  RH  031%=      5-min Rain = 0
KANS 140145Z 24005KT 21/03 A2999 RMK A01 T02110030  RH  031%=      5-min Rain = 0
KANS 140150Z 24005KT 21/03 A2999 RMK A01 T02080032  RH  032%=      5-min Rain = 0
KANS 140155Z 24005KT 21/03 A2999 RMK A01 T02060031  RH  032%=      5-min Rain = 0
KANS 140200Z 25005KT 21/03 A2999 RMK A01 T02060029  RH  031%=      5-min Rain = 0
KANS 140205Z 25005KT 21/03 A2999 RMK A01 T02050031  RH  032%=      5-min Rain = 0
KANS 140210Z 25005KT 20/03 A2999 RMK A01 T02020034  RH  033%=      5-min Rain = 0
KANS 140215Z 23005KT 20/04 A2999 RMK A01 T01970036  RH  035%=      5-min Rain = 0
KANS 140220Z 18006KT 19/04 A30 RMK A01 T01930043  RH  038%=      5-min Rain = 0
KANS 140225Z 19005KT 20/02 A30 RMK A01 T01970024  RH  032%=      5-min Rain = 0
KANS 140230Z 19008KT 20/02 A30 RMK A01 T02040020  RH  030%=      5-min Rain = 0
KANS 140235Z 20008KT 21/03 A30 RMK A01 T02140025  RH  029%=      5-min Rain = 0
KANS 140240Z 20008KT 22/03 A30 RMK A01 T02190027  RH  029%=      5-min Rain = 0
KANS 140245Z 19007KT 22/03 A30 RMK A01 T02200029  RH  029%=      5-min Rain = 0
KANS 140250Z 19007KT 22/03 A30 RMK A01 T02170028  RH  029%=      5-min Rain = 0
KANS 140255Z 20007KT 22/03 A30 RMK A01 T02150029  RH  030%=      5-min Rain = 0
KANS 140300Z 20006KT 21/03 A30 RMK A01 T02130031  RH  031%=      5-min Rain = 0
KANS 140305Z 20007KT 21/03 A30 RMK A01 T02120034  RH  031%=      5-min Rain = 0
KANS 140310Z 20007KT 21/04 A30 RMK A01 T02130035  RH  031%=      5-min Rain = 0
KANS 140315Z 20007KT 21/04 A30 RMK A01 T02120036  RH  032%=      5-min Rain = 0
KANS 140320Z 19007KT 21/04 A30 RMK A01 T02120037  RH  032%=      5-min Rain = 0
KANS 140325Z 20006KT 21/04 A30 RMK A01 T02100038  RH  033%=      5-min Rain = 0
KANS 140330Z 20006KT 21/04 A30 RMK A01 T02080039  RH  033%=      5-min Rain = 0
KANS 140335Z 20006KT 21/04 A3001 RMK A01 T02070040  RH  034%=      5-min Rain = 0
KANS 140340Z 20007KT 21/04 A3001 RMK A01 T02060040  RH  034%=      5-min Rain = 0
KANS 140345Z 19007KT 21/04 A3001 RMK A01 T02060041  RH  034%=      5-min Rain = 0
KANS 140350Z 19007KT 21/04 A3001 RMK A01 T02050041  RH  034%=      5-min Rain = 0
KANS 140355Z 19007KT 20/04 A3001 RMK A01 T02040042  RH  035%=      5-min Rain = 0
KANS 140400Z 19007KT 20/04 A3001 RMK A01 T02030042  RH  035%=      5-min Rain = 0
KANS 140405Z 19007KT 20/04 A3001 RMK A01 T02020042  RH  035%=      5-min Rain = 0
KANS 140410Z 18008KT 20/04 A3001 RMK A01 T02010043  RH  036%=      5-min Rain = 0
KANS 140415Z 19008KT 20/04 A3001 RMK A01 T02010044  RH  036%=      5-min Rain = 0
KANS 140420Z 19007KT 20/04 A3001 RMK A01 T02010044  RH  036%=      5-min Rain = 0
KANS 140425Z 20008KT 20/05 A3001 RMK A01 T02010045  RH  036%=      5-min Rain = 0
KANS 140430Z 20007KT 20/05 A3001 RMK A01 T02010046  RH  036%=      5-min Rain = 0
KANS 140435Z 20007KT 20/05 A3001 RMK A01 T02000047  RH  037%=      5-min Rain = 0
KANS 140440Z 20007KT 20/05 A3001 RMK A01 T02000048  RH  037%=      5-min Rain = 0
KANS 140445Z 20007KT 20/05 A3001 RMK A01 T01990048  RH  038%=      5-min Rain = 0
KANS 140450Z 21007KT 20/05 A3001 RMK A01 T01980049  RH  038%=      5-min Rain = 0
KANS 140455Z 21007KT 20/05 A3001 RMK A01 T01980050  RH  039%=      5-min Rain = 0

Page generated in 0.0272 seconds.